createdAt,value
2022-08-11T00:01:59.389Z,100659.59
2022-08-11T00:04:32.011Z,100641.49
2022-08-11T00:07:02.780Z,100628.75
2022-08-11T00:09:39.531Z,100624.58
2022-08-11T00:12:16.844Z,100623.73
2022-08-11T00:14:46.707Z,100629.54
2022-08-11T00:17:17.069Z,100638.72
2022-08-11T00:20:14.390Z,100645.11
2022-08-11T00:22:23.000Z,100648.23
2022-08-11T00:24:56.193Z,100648.19
2022-08-11T00:27:35.606Z,100648.39
2022-08-11T00:30:07.360Z,100658.11
2022-08-11T00:32:38.819Z,100651.66
2022-08-11T00:35:51.316Z,100645.80
2022-08-11T00:37:49.703Z,100648.53
2022-08-11T00:40:32.607Z,100645.70
2022-08-11T00:43:20.163Z,100651.45
2022-08-11T00:46:25.535Z,100648.92
2022-08-11T00:49:38.094Z,100650.86
2022-08-11T00:52:35.460Z,100650.86
2022-08-11T00:55:47.129Z,100650.31
2022-08-11T00:58:44.447Z,100652.00
2022-08-11T01:01:20.927Z,100651.95
2022-08-11T01:04:26.222Z,100645.11
2022-08-11T01:08:01.905Z,100640.35
2022-08-11T01:10:57.799Z,100641.44
2022-08-11T01:14:01.309Z,100640.84
2022-08-11T01:17:09.697Z,100639.70
2022-08-11T01:20:47.107Z,100638.67
2022-08-11T01:23:17.462Z,100632.27
2022-08-11T01:26:34.412Z,100632.56
2022-08-11T01:29:27.331Z,100629.79
2022-08-11T01:32:11.900Z,100631.42
2022-08-11T01:35:06.229Z,100633.06
2022-08-11T01:37:50.226Z,100633.36
2022-08-11T01:40:57.133Z,100632.27
2022-08-11T01:44:13.180Z,100631.72
2022-08-11T01:47:19.068Z,100628.35
2022-08-11T01:50:13.034Z,100631.18
2022-08-11T01:52:59.669Z,100624.78
2022-08-11T01:55:54.179Z,100621.16
2022-08-11T01:58:43.539Z,100620.86
2022-08-11T02:01:23.268Z,100621.41
2022-08-11T02:04:17.755Z,100623.05
2022-08-11T02:07:17.774Z,100619.97
2022-08-11T02:09:58.587Z,100614.31
2022-08-11T02:12:52.836Z,100612.82
2022-08-11T02:15:37.124Z,100615.59
2022-08-11T02:18:23.768Z,100612.82
2022-08-11T02:21:15.114Z,100614.20
2022-08-11T02:24:04.469Z,100616.38
2022-08-11T02:26:45.805Z,100604.73
2022-08-11T02:29:25.111Z,100611.73
2022-08-11T02:32:33.664Z,100610.40
2022-08-11T02:35:32.145Z,100607.92
2022-08-11T02:38:17.840Z,100607.63
2022-08-11T02:40:55.125Z,100601.77
2022-08-11T02:43:41.655Z,100608.77
2022-08-11T02:46:29.354Z,100612.63
2022-08-11T02:49:34.369Z,100610.40
2022-08-11T02:52:12.034Z,100614.50
2022-08-11T02:54:58.380Z,100598.15
2022-08-11T02:57:43.601Z,100597.61
2022-08-11T03:00:15.163Z,100599.54
2022-08-11T03:03:17.371Z,100610.64
2022-08-11T03:06:09.999Z,100602.56
2022-08-11T03:08:57.342Z,100603.11
2022-08-11T03:12:11.804Z,100607.52
2022-08-11T03:15:32.104Z,100606.37
2022-08-11T03:18:26.706Z,100604.36
2022-08-11T03:21:12.690Z,100611.30
2022-08-11T03:24:12.924Z,100598.20
2022-08-11T03:27:11.107Z,100598.45
2022-08-11T03:30:03.329Z,100612.33
2022-08-11T03:33:29.574Z,100614.86
2022-08-11T03:36:16.005Z,100616.19
2022-08-11T03:39:08.880Z,100616.44
2022-08-11T03:42:04.379Z,100630.61
2022-08-11T03:44:40.209Z,100625.36
2022-08-11T03:47:55.206Z,100622.77
2022-08-11T03:50:32.806Z,100625.25
2022-08-11T03:53:51.741Z,100623.02
2022-08-11T03:56:55.238Z,100628.92
2022-08-11T04:00:02.544Z,100628.81
2022-08-11T04:03:31.393Z,100623.70
2022-08-11T04:06:41.608Z,100607.59
2022-08-11T04:09:46.237Z,100600.66
2022-08-11T04:12:37.998Z,100609.03
2022-08-11T04:16:00.629Z,100606.62
2022-08-11T04:18:51.725Z,100611.08
2022-08-11T04:21:44.150Z,100599.19
2022-08-11T04:24:50.489Z,100597.86
2022-08-11T04:28:07.855Z,100605.03
2022-08-11T04:31:02.376Z,100601.37
2022-08-11T04:33:56.594Z,100603.73
2022-08-11T04:37:15.974Z,100605.77
2022-08-11T04:40:29.669Z,100593.09
2022-08-11T04:43:23.948Z,100588.33
2022-08-11T04:46:07.686Z,100576.94
2022-08-11T04:49:36.888Z,100569.80
2022-08-11T04:52:41.664Z,100564.91
2022-08-11T04:56:00.903Z,100559.79
2022-08-11T04:59:02.987Z,100553.14
2022-08-11T05:01:43.105Z,100547.05
2022-08-11T05:04:53.939Z,100548.44
2022-08-11T05:07:57.834Z,100552.90
2022-08-11T05:10:49.192Z,100558.55
2022-08-11T05:13:55.809Z,100555.23
2022-08-11T05:16:56.734Z,100559.98
2022-08-11T05:19:44.715Z,100568.02
2022-08-11T05:22:33.095Z,100584.38
2022-08-11T05:26:42.671Z,100587.16
2022-08-11T05:28:29.857Z,100595.78
2022-08-11T05:31:31.262Z,100597.85
2022-08-11T05:34:30.907Z,100615.59
2022-08-11T05:37:27.295Z,100623.92
2022-08-11T05:40:16.873Z,100626.31
2022-08-11T05:43:09.570Z,100632.73
2022-08-11T05:46:03.552Z,100620.77
2022-08-11T05:48:52.402Z,100635.52
2022-08-11T05:51:54.527Z,100624.72
2022-08-11T05:54:29.768Z,100620.71
2022-08-11T05:57:00.401Z,100623.78
2022-08-11T05:59:29.521Z,100617.47
2022-08-11T06:02:06.111Z,100609.45
2022-08-11T06:04:36.115Z,100606.67
2022-08-11T06:07:10.705Z,100606.97
2022-08-11T06:09:51.020Z,100622.89
2022-08-11T06:12:26.235Z,100621.01
2022-08-11T06:14:56.426Z,100623.84
2022-08-11T06:17:39.063Z,100635.84
2022-08-11T06:20:07.310Z,100639.51
2022-08-11T06:22:36.395Z,100644.81
2022-08-11T06:25:06.650Z,100642.88
2022-08-11T06:27:37.615Z,100638.01
2022-08-11T06:30:10.338Z,100640.24
2022-08-11T06:32:41.528Z,100642.77
2022-08-11T06:35:27.754Z,100652.05
2022-08-11T06:38:10.223Z,100656.12
2022-08-11T06:41:11.823Z,100648.19
2022-08-11T06:43:59.862Z,100661.33
2022-08-11T06:46:33.754Z,100660.59
2022-08-11T06:49:03.729Z,100657.91
2022-08-11T06:51:34.759Z,100655.23
2022-08-11T06:54:06.478Z,100659.73
2022-08-11T06:57:26.291Z,100660.08
2022-08-11T06:59:47.573Z,100668.22
2022-08-11T07:02:31.045Z,100679.13
2022-08-11T07:05:06.746Z,100679.68
2022-08-11T07:08:34.175Z,100687.77
2022-08-11T07:11:55.854Z,100692.23
2022-08-11T07:14:45.674Z,100688.36
2022-08-11T07:17:22.320Z,100682.80
2022-08-11T07:20:16.839Z,100668.91
2022-08-11T07:23:12.840Z,100663.34
2022-08-11T07:26:01.604Z,100660.47
2022-08-11T07:28:51.269Z,100670.75
2022-08-11T07:31:37.462Z,100665.23
2022-08-11T07:34:26.662Z,100646.03
2022-08-11T07:36:58.513Z,100624.89
2022-08-11T07:39:31.115Z,100615.72
2022-08-11T07:42:00.685Z,100628.52
2022-08-11T07:44:34.831Z,100641.61
2022-08-11T07:47:19.156Z,100632.44
2022-08-11T07:50:07.407Z,100628.27
2022-08-11T07:52:38.486Z,100634.67
2022-08-11T07:55:15.114Z,100627.47
2022-08-11T07:58:19.426Z,100620.27
2022-08-11T08:00:59.172Z,100617.78
2022-08-11T08:03:54.019Z,100619.77
2022-08-11T08:06:37.935Z,100621.27
2022-08-11T08:09:25.898Z,100624.17
2022-08-11T08:12:13.621Z,100636.48
2022-08-11T08:15:01.663Z,100640.14
2022-08-11T08:18:09.630Z,100643.72
2022-08-11T08:20:23.107Z,100627.08
2022-08-11T08:22:56.886Z,100635.77
2022-08-11T08:25:27.486Z,100648.36
2022-08-11T08:27:57.063Z,100657.37
2022-08-11T08:30:46.611Z,100658.60
2022-08-11T08:33:25.455Z,100651.44
2022-08-11T08:35:59.463Z,100649.58
2022-08-11T08:38:29.358Z,100660.49
2022-08-11T08:41:00.312Z,100644.39
2022-08-11T08:43:32.497Z,100645.27
2022-08-11T08:46:01.706Z,100640.30
2022-08-11T08:48:31.762Z,100644.88
2022-08-11T08:51:27.247Z,100649.70
2022-08-11T08:54:11.745Z,100630.56
2022-08-11T08:56:42.094Z,100623.97
2022-08-11T08:59:13.926Z,100634.95
2022-08-11T09:02:06.551Z,100625.86
2022-08-11T09:04:37.681Z,100624.50
2022-08-11T09:07:12.499Z,100622.56
2022-08-11T09:09:45.270Z,100616.19
2022-08-11T09:12:14.555Z,100626.00
2022-08-11T09:14:58.112Z,100629.04
2022-08-11T09:17:29.875Z,100636.22
2022-08-11T09:20:19.547Z,100647.25
2022-08-11T09:25:58.173Z,100644.84
2022-08-11T09:28:31.610Z,100635.03
2022-08-11T09:31:00.893Z,100634.77
2022-08-11T09:33:29.839Z,100638.83
2022-08-11T09:36:01.014Z,100650.87
2022-08-11T09:38:49.796Z,100638.09
2022-08-11T09:41:19.997Z,100634.80
2022-08-11T09:44:09.203Z,100640.95
2022-08-11T09:46:40.992Z,100640.44
2022-08-11T09:49:10.528Z,100635.67
2022-08-11T09:51:41.279Z,100641.05
2022-08-11T09:54:10.663Z,100631.12
2022-08-11T09:57:03.275Z,100632.89
2022-08-11T09:59:30.420Z,100626.61
2022-08-11T10:02:01.599Z,100635.06
2022-08-11T10:04:41.288Z,100630.13
2022-08-11T10:07:10.964Z,100636.08
2022-08-11T10:10:01.759Z,100632.56
2022-08-11T10:12:37.096Z,100629.92
2022-08-11T10:15:30.695Z,100635.36
2022-08-11T10:18:36.040Z,100631.59
2022-08-11T10:21:20.493Z,100631.35
2022-08-11T10:24:10.585Z,100640.37
2022-08-11T10:26:55.064Z,100642.67
2022-08-11T10:29:54.541Z,100638.27
2022-08-11T10:32:59.309Z,100635.52
2022-08-11T10:35:21.028Z,100635.27
2022-08-11T10:38:06.629Z,100636.74
2022-08-11T10:40:24.629Z,100623.45
2022-08-11T10:43:05.724Z,100619.06
2022-08-11T10:45:59.740Z,100613.81
2022-08-11T10:48:31.801Z,100610.53
2022-08-11T10:51:24.557Z,100613.09
2022-08-11T10:54:07.500Z,100600.00
2022-08-11T10:56:57.918Z,100595.30
2022-08-11T10:59:29.749Z,100590.00
2022-08-11T11:01:59.271Z,100598.38
2022-08-11T11:04:33.973Z,100597.53
2022-08-11T11:07:14.604Z,100593.05
2022-08-11T11:09:58.438Z,100597.23
2022-08-11T11:12:53.364Z,100594.70
2022-08-11T11:15:41.748Z,100589.13
2022-08-11T11:18:17.956Z,100583.57
2022-08-11T11:20:52.384Z,100579.69
2022-08-11T11:23:28.847Z,100587.52
2022-08-11T11:26:28.056Z,100581.72
2022-08-11T11:29:48.128Z,100589.87
2022-08-11T11:32:28.576Z,100579.55
2022-08-11T11:35:17.942Z,100582.63
2022-08-11T11:38:03.668Z,100573.97
2022-08-11T11:40:22.559Z,100572.59
2022-08-11T11:42:54.798Z,100572.60
2022-08-11T11:45:25.251Z,100578.48
2022-08-11T11:47:58.903Z,100572.63
2022-08-11T11:50:32.751Z,100581.30
2022-08-11T11:53:04.978Z,100584.38
2022-08-11T11:55:35.366Z,100585.50
2022-08-11T11:58:23.077Z,100582.70
2022-08-11T12:01:11.734Z,100589.70
2022-08-11T12:03:42.206Z,100594.45
2022-08-11T12:06:14.451Z,100596.98
2022-08-11T12:08:44.733Z,100597.85
2022-08-11T12:11:33.803Z,100587.79
2022-08-11T12:14:10.262Z,100591.15
2022-08-11T12:16:38.907Z,100595.66
2022-08-11T12:19:12.075Z,100589.78
2022-08-11T12:21:43.739Z,100580.83
2022-08-11T12:24:19.782Z,100582.23
2022-08-11T12:27:15.172Z,100578.87
2022-08-11T12:29:21.340Z,100579.98
2022-08-11T12:31:50.983Z,100592.84
2022-08-11T12:34:20.903Z,100595.64
2022-08-11T12:37:01.469Z,100593.11
2022-08-11T12:40:15.794Z,100595.08
2022-08-11T12:42:43.514Z,100599.27
2022-08-11T12:45:29.154Z,100602.65
2022-08-11T12:48:59.636Z,100600.96
2022-08-11T12:51:30.424Z,100600.39
2022-08-11T12:54:11.748Z,100601.22
2022-08-11T12:56:55.634Z,100597.02
2022-08-11T12:59:43.702Z,100603.47
2022-08-11T13:02:39.993Z,100603.48
2022-08-11T13:05:11.235Z,100607.97
2022-08-11T13:07:50.729Z,100603.77
2022-08-11T13:10:16.902Z,100602.37
2022-08-11T13:12:49.709Z,100598.73
2022-08-11T13:15:24.080Z,100597.89
2022-08-11T13:17:54.905Z,100600.94
2022-08-11T13:20:24.879Z,100594.52
2022-08-11T13:22:55.965Z,100587.23
2022-08-11T13:25:26.740Z,100585.00
2022-08-11T13:28:01.469Z,100587.52
2022-08-11T13:30:50.489Z,100585.27
2022-08-11T13:33:19.636Z,100582.21
2022-08-11T13:35:50.663Z,100578.85
2022-08-11T13:38:22.109Z,100576.33
2022-08-11T13:40:56.079Z,100579.97
2022-08-11T13:43:23.819Z,100576.03
2022-08-11T13:45:55.323Z,100577.43
2022-08-11T13:48:24.622Z,100572.38
2022-08-11T13:51:12.129Z,100575.45
2022-08-11T13:53:43.347Z,100586.12
2022-08-11T13:56:12.963Z,100577.72
2022-08-11T13:58:53.938Z,100586.95
2022-08-11T14:02:19.835Z,100585.84
2022-08-11T14:04:31.118Z,100584.15
2022-08-11T14:06:46.788Z,100585.84
2022-08-11T14:09:17.969Z,100587.80
2022-08-11T14:12:22.402Z,100591.16
2022-08-11T14:14:36.866Z,100592.27
2022-08-11T14:17:08.374Z,100596.75
2022-08-11T14:19:40.084Z,100590.59
2022-08-11T14:22:09.797Z,100585.00
2022-08-11T14:24:43.005Z,100587.21
2022-08-11T14:28:25.954Z,100584.97
2022-08-11T14:29:48.745Z,100591.71
2022-08-11T14:32:15.528Z,100582.47
2022-08-11T14:34:44.889Z,100584.42
2022-08-11T14:37:21.785Z,100581.06
2022-08-11T14:40:00.721Z,100570.13
2022-08-11T14:42:45.981Z,100563.11
2022-08-11T14:45:57.661Z,100566.47
2022-08-11T14:48:09.213Z,100568.41
2022-08-11T14:50:38.888Z,100573.16
2022-08-11T14:53:11.582Z,100570.91
2022-08-11T14:56:03.542Z,100569.49
2022-08-11T14:58:34.106Z,100570.88
2022-08-11T15:01:03.578Z,100572.83
2022-08-11T15:03:36.067Z,100572.83
2022-08-11T15:06:05.901Z,100565.28
2022-08-11T15:08:57.023Z,100563.05
2022-08-11T15:11:50.502Z,100563.89
2022-08-11T15:14:21.628Z,100561.97
2022-08-11T15:17:09.949Z,100566.75
2022-08-11T15:19:47.112Z,100574.61
2022-08-11T15:22:35.506Z,100574.62
2022-08-11T15:25:05.738Z,100574.33
2022-08-11T15:27:53.281Z,100571.27
2022-08-11T15:30:40.912Z,100578.27
2022-08-11T15:33:30.222Z,100573.52
2022-08-11T15:36:18.088Z,100577.71
2022-08-11T15:39:02.574Z,100576.03
2022-08-11T15:41:58.467Z,100569.03
2022-08-11T15:45:02.290Z,100571.00
2022-08-11T15:47:18.845Z,100569.88
2022-08-11T15:50:10.814Z,100572.67
2022-08-11T15:52:22.687Z,100572.94
2022-08-11T15:54:52.137Z,100569.02
2022-08-11T15:57:41.293Z,100567.06
2022-08-11T16:00:30.185Z,100565.94
2022-08-11T16:03:17.918Z,100564.81
2022-08-11T16:05:53.033Z,100562.00
2022-08-11T16:08:32.752Z,100560.62
2022-08-11T16:10:56.368Z,100565.94
2022-08-11T16:13:26.581Z,100562.02
2022-08-11T16:16:09.041Z,100561.19
2022-08-11T16:18:57.368Z,100564.53
2022-08-11T16:21:36.703Z,100563.70
2022-08-11T16:24:08.011Z,100556.98
2022-08-11T16:27:11.732Z,100555.29
2022-08-11T16:29:11.668Z,100559.77
2022-08-11T16:31:41.798Z,100564.53
2022-08-11T16:34:12.917Z,100566.50
2022-08-11T16:37:00.844Z,100565.38
2022-08-11T16:39:31.380Z,100567.06
2022-08-11T16:43:09.407Z,100564.27
2022-08-11T16:45:09.512Z,100562.59
2022-08-11T16:48:03.040Z,100564.84
2022-08-11T16:50:13.322Z,100568.77
2022-08-11T16:52:43.666Z,100565.69
2022-08-11T16:55:13.476Z,100573.53
2022-08-11T16:58:03.882Z,100574.07
2022-08-11T17:00:36.620Z,100576.03
2022-08-11T17:03:24.705Z,100575.75
2022-08-11T17:06:12.658Z,100580.80
2022-08-11T17:09:07.560Z,100579.13
2022-08-11T17:12:00.616Z,100579.97
2022-08-11T17:14:50.199Z,100577.45
2022-08-11T17:17:29.255Z,100581.38
2022-08-11T17:20:40.316Z,100579.42
2022-08-11T17:22:51.979Z,100588.10
2022-08-11T17:25:22.122Z,100578.87
2022-08-11T17:27:52.758Z,100576.35
2022-08-11T17:30:23.019Z,100576.35
2022-08-11T17:33:10.913Z,100581.11
2022-08-11T17:35:41.298Z,100580.83
2022-08-11T17:38:18.591Z,100571.04
2022-08-11T17:41:23.005Z,100575.77
2022-08-11T17:44:05.858Z,100578.56
2022-08-11T17:46:54.962Z,100584.72
2022-08-11T17:49:25.249Z,100582.20
2022-08-11T17:52:14.823Z,100589.19
2022-08-11T17:55:06.096Z,100588.63
2022-08-11T17:57:56.165Z,100595.62
2022-08-11T18:00:26.323Z,100595.62
2022-08-11T18:03:15.057Z,100597.02
2022-08-11T18:05:46.496Z,100600.09
2022-08-11T18:08:34.792Z,100601.48
2022-08-11T18:12:06.479Z,100593.91
2022-08-11T18:14:13.370Z,100595.86
2022-08-11T18:17:05.567Z,100595.30
2022-08-11T18:19:53.699Z,100597.81
2022-08-11T18:22:44.775Z,100593.33
2022-08-11T18:25:36.047Z,100600.33
2022-08-11T18:28:28.111Z,100594.73
2022-08-11T18:31:19.771Z,100600.31
2022-08-11T18:34:12.981Z,100603.95
2022-08-11T18:37:29.476Z,100594.44
2022-08-11T18:40:25.515Z,100600.59
2022-08-11T18:43:22.706Z,100598.07
2022-08-11T18:46:11.159Z,100595.83
2022-08-11T18:49:05.936Z,100597.22
2022-08-11T18:51:56.038Z,100593.03
2022-08-11T18:54:48.864Z,100589.67
2022-08-11T18:57:49.737Z,100602.80
2022-08-11T19:00:32.667Z,100598.33
2022-08-11T19:03:21.073Z,100599.72
2022-08-11T19:06:39.047Z,100604.19
2022-08-11T19:09:03.522Z,100601.67
2022-08-11T19:11:52.615Z,100599.16
2022-08-11T19:14:42.064Z,100606.13
2022-08-11T19:17:44.370Z,100599.70
2022-08-11T19:20:24.960Z,100600.82
2022-08-11T19:23:15.193Z,100596.91
2022-08-11T19:26:04.554Z,100599.97
2022-08-11T19:28:54.124Z,100598.01
2022-08-11T19:31:44.971Z,100599.13
2022-08-11T19:34:36.211Z,100599.95
2022-08-11T19:37:25.873Z,100593.24
2022-08-11T19:40:26.434Z,100596.05
2022-08-11T19:43:23.585Z,100598.84
2022-08-11T19:46:07.233Z,100597.71
2022-08-11T19:48:55.472Z,100594.36
2022-08-11T19:51:45.602Z,100599.95
2022-08-11T19:54:34.861Z,100595.19
2022-08-11T19:57:23.822Z,100595.19
2022-08-11T20:00:13.517Z,100594.07
2022-08-11T20:03:09.224Z,100595.73
2022-08-11T20:06:00.033Z,100591.83
2022-08-11T20:11:44.428Z,100591.27
2022-08-11T20:14:33.165Z,100590.97
2022-08-11T20:17:22.537Z,100592.93
2022-08-11T20:20:11.088Z,100592.33
2022-08-11T20:22:58.911Z,100591.20
2022-08-11T20:25:46.677Z,100586.98
2022-08-11T20:28:34.491Z,100591.45
2022-08-11T20:31:24.621Z,100591.72
2022-08-11T20:34:12.151Z,100588.92
2022-08-11T20:37:01.107Z,100589.48
2022-08-11T20:39:49.786Z,100590.31
2022-08-11T20:42:38.398Z,100592.27
2022-08-11T20:45:28.137Z,100592.28
2022-08-11T20:48:15.908Z,100585.02
2022-08-11T20:51:07.570Z,100584.73
2022-08-11T20:53:59.823Z,100589.20
2022-08-11T20:56:50.882Z,100590.03
2022-08-11T20:59:56.388Z,100598.97
2022-08-11T21:02:33.002Z,100590.87
2022-08-11T21:05:22.455Z,100589.19
2022-08-11T21:08:11.660Z,100594.48
2022-08-11T21:11:02.096Z,100588.91
2022-08-11T21:13:56.155Z,100597.56
2022-08-11T21:16:49.799Z,100593.37
2022-08-11T21:20:01.342Z,100587.78
2022-08-11T21:22:59.657Z,100587.50
2022-08-11T21:25:35.637Z,100590.29
2022-08-11T21:28:25.302Z,100585.54
2022-08-11T21:31:15.710Z,100587.22
2022-08-11T21:34:04.593Z,100585.54
2022-08-11T21:36:53.736Z,100586.94
2022-08-11T21:39:43.439Z,100584.70
2022-08-11T21:42:31.021Z,100578.27
2022-08-11T21:45:18.661Z,100576.59
2022-08-11T21:48:06.487Z,100587.48
2022-08-11T21:50:54.965Z,100580.77
2022-08-11T21:53:43.361Z,100580.50
2022-08-11T21:56:33.414Z,100586.09
2022-08-11T21:59:21.541Z,100584.98
2022-08-11T22:02:12.771Z,100580.50
2022-08-11T22:05:00.808Z,100576.31
2022-08-11T22:07:49.355Z,100580.22
2022-08-11T22:10:41.785Z,100584.41
2022-08-11T22:13:28.013Z,100583.57
2022-08-11T22:16:18.491Z,100595.30
2022-08-11T22:19:06.673Z,100591.09
2022-08-11T22:22:03.128Z,100593.88
2022-08-11T22:24:47.573Z,100591.62
2022-08-11T22:27:35.670Z,100589.39
2022-08-11T22:30:27.304Z,100581.84
2022-08-11T22:33:17.590Z,100588.83
2022-08-11T22:36:08.397Z,100586.59
2022-08-11T22:38:57.562Z,100582.11
2022-08-11T22:41:45.434Z,100580.15
2022-08-11T22:44:34.053Z,100586.28
2022-08-11T22:47:22.336Z,100591.30
2022-08-11T22:50:14.294Z,100590.17
2022-08-11T22:53:02.687Z,100592.95
2022-08-11T22:55:50.632Z,100582.05
2022-08-11T22:58:41.058Z,100586.80
2022-08-11T23:01:29.765Z,100592.36
2022-08-11T23:04:19.251Z,100583.15
2022-08-11T23:07:07.609Z,100582.58
2022-08-11T23:09:55.973Z,100590.39
2022-08-11T23:12:43.586Z,100582.00
2022-08-11T23:15:33.259Z,100577.23
2022-08-11T23:18:23.792Z,100579.45
2022-08-11T23:21:12.561Z,100588.64
2022-08-11T23:24:01.594Z,100584.46
2022-08-11T23:26:49.931Z,100580.26
2022-08-11T23:29:38.381Z,100584.72
2022-08-11T23:32:26.528Z,100576.30
2022-08-11T23:35:38.464Z,100574.31
2022-08-11T23:38:03.679Z,100568.68
2022-08-11T23:40:51.160Z,100567.55
2022-08-11T23:43:40.884Z,100569.22
2022-08-11T23:46:29.286Z,100572.02
2022-08-11T23:49:21.094Z,100570.87
2022-08-11T23:52:09.104Z,100570.84
2022-08-11T23:54:56.997Z,100579.76
2022-08-11T23:57:48.796Z,100573.89
